sensor_id;sensor_type;location;lat;lon;timestamp;P1;durP1;ratioP1;P2;durP2;ratioP2
75890;SDS011;64571;47.512;19.054;2024-01-07T00:01:27;25.15;;;12.20;;
75890;SDS011;64571;47.512;19.054;2024-01-07T00:04:30;26.05;;;11.88;;
75890;SDS011;64571;47.512;19.054;2024-01-07T00:07:33;23.62;;;11.35;;
75890;SDS011;64571;47.512;19.054;2024-01-07T00:10:35;23.30;;;11.63;;
75890;SDS011;64571;47.512;19.054;2024-01-07T00:13:38;23.35;;;11.75;;
75890;SDS011;64571;47.512;19.054;2024-01-07T00:16:40;21.62;;;11.40;;
75890;SDS011;64571;47.512;19.054;2024-01-07T00:19:43;23.83;;;11.98;;
75890;SDS011;64571;47.512;19.054;2024-01-07T00:22:46;21.52;;;11.73;;
75890;SDS011;64571;47.512;19.054;2024-01-07T00:25:48;23.97;;;11.00;;
75890;SDS011;64571;47.512;19.054;2024-01-07T00:28:51;21.55;;;11.20;;
75890;SDS011;64571;47.512;19.054;2024-01-07T00:31:53;22.67;;;11.18;;
75890;SDS011;64571;47.512;19.054;2024-01-07T00:34:56;23.40;;;10.38;;
75890;SDS011;64571;47.512;19.054;2024-01-07T00:37:59;25.00;;;12.35;;
75890;SDS011;64571;47.512;19.054;2024-01-07T00:41:02;23.27;;;11.00;;
75890;SDS011;64571;47.512;19.054;2024-01-07T00:44:04;21.35;;;10.93;;
75890;SDS011;64571;47.512;19.054;2024-01-07T00:47:07;24.00;;;11.85;;
75890;SDS011;64571;47.512;19.054;2024-01-07T00:50:09;25.75;;;11.63;;
75890;SDS011;64571;47.512;19.054;2024-01-07T00:53:13;18.33;;;10.10;;
75890;SDS011;64571;47.512;19.054;2024-01-07T00:56:15;24.33;;;10.67;;
75890;SDS011;64571;47.512;19.054;2024-01-07T00:59:18;21.12;;;11.25;;
75890;SDS011;64571;47.512;19.054;2024-01-07T01:02:20;23.98;;;11.75;;
75890;SDS011;64571;47.512;19.054;2024-01-07T01:05:23;19.33;;;10.55;;
75890;SDS011;64571;47.512;19.054;2024-01-07T01:08:26;19.33;;;11.80;;
75890;SDS011;64571;47.512;19.054;2024-01-07T01:11:29;20.13;;;10.80;;
75890;SDS011;64571;47.512;19.054;2024-01-07T01:14:31;21.70;;;10.50;;
75890;SDS011;64571;47.512;19.054;2024-01-07T01:17:34;23.58;;;11.12;;
75890;SDS011;64571;47.512;19.054;2024-01-07T01:20:36;19.17;;;9.95;;
75890;SDS011;64571;47.512;19.054;2024-01-07T01:23:39;21.27;;;10.48;;
75890;SDS011;64571;47.512;19.054;2024-01-07T01:26:42;20.97;;;10.10;;
75890;SDS011;64571;47.512;19.054;2024-01-07T01:29:45;22.67;;;11.48;;
75890;SDS011;64571;47.512;19.054;2024-01-07T01:32:47;20.73;;;10.38;;
75890;SDS011;64571;47.512;19.054;2024-01-07T01:35:50;18.37;;;9.75;;
75890;SDS011;64571;47.512;19.054;2024-01-07T01:38:52;18.87;;;9.32;;
75890;SDS011;64571;47.512;19.054;2024-01-07T01:41:55;24.97;;;9.30;;
75890;SDS011;64571;47.512;19.054;2024-01-07T01:44:58;17.40;;;9.50;;
75890;SDS011;64571;47.512;19.054;2024-01-07T01:48:04;19.33;;;9.63;;
75890;SDS011;64571;47.512;19.054;2024-01-07T01:51:08;16.60;;;9.07;;
75890;SDS011;64571;47.512;19.054;2024-01-07T01:54:11;18.98;;;10.13;;
75890;SDS011;64571;47.512;19.054;2024-01-07T01:57:15;15.23;;;8.37;;
75890;SDS011;64571;47.512;19.054;2024-01-07T02:00:21;18.95;;;9.05;;
75890;SDS011;64571;47.512;19.054;2024-01-07T02:03:24;17.00;;;8.30;;
75890;SDS011;64571;47.512;19.054;2024-01-07T02:06:28;18.35;;;9.07;;
75890;SDS011;64571;47.512;19.054;2024-01-07T02:09:31;17.85;;;9.48;;
75890;SDS011;64571;47.512;19.054;2024-01-07T02:12:34;18.73;;;9.40;;
75890;SDS011;64571;47.512;19.054;2024-01-07T02:15:37;17.42;;;9.00;;
75890;SDS011;64571;47.512;19.054;2024-01-07T02:18:41;24.10;;;9.93;;
75890;SDS011;64571;47.512;19.054;2024-01-07T02:21:45;16.98;;;8.38;;
75890;SDS011;64571;47.512;19.054;2024-01-07T02:24:47;19.30;;;9.77;;
75890;SDS011;64571;47.512;19.054;2024-01-07T02:27:50;18.13;;;8.50;;
75890;SDS011;64571;47.512;19.054;2024-01-07T02:30:53;18.77;;;9.43;;
75890;SDS011;64571;47.512;19.054;2024-01-07T02:33:55;17.50;;;9.55;;
75890;SDS011;64571;47.512;19.054;2024-01-07T02:36:58;16.65;;;9.05;;
75890;SDS011;64571;47.512;19.054;2024-01-07T02:40:01;17.50;;;9.80;;
75890;SDS011;64571;47.512;19.054;2024-01-07T02:43:05;18.07;;;9.30;;
75890;SDS011;64571;47.512;19.054;2024-01-07T02:46:08;18.23;;;9.55;;
75890;SDS011;64571;47.512;19.054;2024-01-07T02:49:12;21.90;;;9.63;;
75890;SDS011;64571;47.512;19.054;2024-01-07T02:52:15;16.85;;;8.63;;
75890;SDS011;64571;47.512;19.054;2024-01-07T02:55:18;18.62;;;10.38;;
75890;SDS011;64571;47.512;19.054;2024-01-07T02:58:20;17.73;;;9.00;;
75890;SDS011;64571;47.512;19.054;2024-01-07T03:01:23;21.15;;;10.60;;
75890;SDS011;64571;47.512;19.054;2024-01-07T03:04:26;20.33;;;9.75;;
75890;SDS011;64571;47.512;19.054;2024-01-07T03:07:28;19.00;;;9.25;;
75890;SDS011;64571;47.512;19.054;2024-01-07T03:10:31;17.33;;;9.05;;
75890;SDS011;64571;47.512;19.054;2024-01-07T03:13:34;17.40;;;8.10;;
75890;SDS011;64571;47.512;19.054;2024-01-07T03:16:36;15.73;;;8.18;;
75890;SDS011;64571;47.512;19.054;2024-01-07T03:19:39;19.80;;;9.57;;
75890;SDS011;64571;47.512;19.054;2024-01-07T03:22:42;23.73;;;10.23;;
75890;SDS011;64571;47.512;19.054;2024-01-07T03:25:44;17.20;;;9.23;;
75890;SDS011;64571;47.512;19.054;2024-01-07T03:28:47;18.67;;;8.63;;
75890;SDS011;64571;47.512;19.054;2024-01-07T03:31:50;16.17;;;8.02;;
75890;SDS011;64571;47.512;19.054;2024-01-07T03:34:53;18.23;;;9.15;;
75890;SDS011;64571;47.512;19.054;2024-01-07T03:37:56;15.98;;;8.82;;
75890;SDS011;64571;47.512;19.054;2024-01-07T03:40:59;15.32;;;7.95;;
75890;SDS011;64571;47.512;19.054;2024-01-07T03:44:02;16.67;;;8.13;;
75890;SDS011;64571;47.512;19.054;2024-01-07T03:47:05;15.93;;;8.15;;
75890;SDS011;64571;47.512;19.054;2024-01-07T03:50:08;15.95;;;8.32;;
75890;SDS011;64571;47.512;19.054;2024-01-07T03:53:11;17.92;;;7.85;;
75890;SDS011;64571;47.512;19.054;2024-01-07T03:56:14;17.30;;;7.93;;
75890;SDS011;64571;47.512;19.054;2024-01-07T03:59:17;12.20;;;6.27;;
75890;SDS011;64571;47.512;19.054;2024-01-07T04:02:20;15.73;;;7.68;;
75890;SDS011;64571;47.512;19.054;2024-01-07T04:05:23;13.93;;;7.40;;
75890;SDS011;64571;47.512;19.054;2024-01-07T04:08:25;15.85;;;7.30;;
75890;SDS011;64571;47.512;19.054;2024-01-07T04:11:28;14.95;;;7.57;;
75890;SDS011;64571;47.512;19.054;2024-01-07T04:14:30;14.40;;;6.70;;
75890;SDS011;64571;47.512;19.054;2024-01-07T04:17:36;12.90;;;7.05;;
75890;SDS011;64571;47.512;19.054;2024-01-07T04:20:39;13.50;;;6.22;;
75890;SDS011;64571;47.512;19.054;2024-01-07T04:23:41;12.95;;;6.47;;
75890;SDS011;64571;47.512;19.054;2024-01-07T04:26:44;16.67;;;7.10;;
75890;SDS011;64571;47.512;19.054;2024-01-07T04:29:46;12.13;;;6.30;;
75890;SDS011;64571;47.512;19.054;2024-01-07T04:32:49;12.57;;;6.20;;
75890;SDS011;64571;47.512;19.054;2024-01-07T04:35:51;13.55;;;6.70;;
75890;SDS011;64571;47.512;19.054;2024-01-07T04:38:54;13.02;;;6.40;;
75890;SDS011;64571;47.512;19.054;2024-01-07T04:41:57;12.60;;;6.37;;
75890;SDS011;64571;47.512;19.054;2024-01-07T04:44:59;12.83;;;5.90;;
75890;SDS011;64571;47.512;19.054;2024-01-07T04:48:03;14.63;;;6.95;;
75890;SDS011;64571;47.512;19.054;2024-01-07T04:51:06;12.50;;;6.05;;
75890;SDS011;64571;47.512;19.054;2024-01-07T04:54:10;13.20;;;5.80;;
75890;SDS011;64571;47.512;19.054;2024-01-07T04:57:12;12.15;;;6.12;;
75890;SDS011;64571;47.512;19.054;2024-01-07T05:00:15;11.43;;;5.23;;
75890;SDS011;64571;47.512;19.054;2024-01-07T05:03:18;11.52;;;5.78;;
75890;SDS011;64571;47.512;19.054;2024-01-07T05:06:21;11.93;;;5.80;;
75890;SDS011;64571;47.512;19.054;2024-01-07T05:09:24;11.50;;;5.40;;
75890;SDS011;64571;47.512;19.054;2024-01-07T05:12:26;52.88;;;22.52;;
75890;SDS011;64571;47.512;19.054;2024-01-07T05:15:29;38.63;;;15.83;;
75890;SDS011;64571;47.512;19.054;2024-01-07T05:18:32;35.17;;;14.27;;
75890;SDS011;64571;47.512;19.054;2024-01-07T05:21:35;18.20;;;8.45;;
75890;SDS011;64571;47.512;19.054;2024-01-07T05:24:37;13.02;;;5.85;;
75890;SDS011;64571;47.512;19.054;2024-01-07T05:27:44;13.10;;;6.47;;
75890;SDS011;64571;47.512;19.054;2024-01-07T05:30:47;11.57;;;4.87;;
75890;SDS011;64571;47.512;19.054;2024-01-07T05:33:51;12.07;;;4.90;;
75890;SDS011;64571;47.512;19.054;2024-01-07T05:36:54;8.40;;;4.15;;
75890;SDS011;64571;47.512;19.054;2024-01-07T05:39:57;11.30;;;4.90;;
75890;SDS011;64571;47.512;19.054;2024-01-07T05:42:59;9.70;;;4.85;;
75890;SDS011;64571;47.512;19.054;2024-01-07T05:46:02;8.83;;;4.20;;
75890;SDS011;64571;47.512;19.054;2024-01-07T05:49:07;8.68;;;4.43;;
75890;SDS011;64571;47.512;19.054;2024-01-07T05:52:10;11.65;;;4.30;;
75890;SDS011;64571;47.512;19.054;2024-01-07T05:55:13;9.25;;;4.62;;
75890;SDS011;64571;47.512;19.054;2024-01-07T05:58:17;12.27;;;5.62;;
75890;SDS011;64571;47.512;19.054;2024-01-07T06:01:20;11.40;;;5.17;;
75890;SDS011;64571;47.512;19.054;2024-01-07T06:04:23;8.18;;;4.30;;
75890;SDS011;64571;47.512;19.054;2024-01-07T06:07:26;9.10;;;4.78;;
75890;SDS011;64571;47.512;19.054;2024-01-07T06:10:29;11.60;;;5.15;;
75890;SDS011;64571;47.512;19.054;2024-01-07T06:13:31;8.80;;;4.75;;
75890;SDS011;64571;47.512;19.054;2024-01-07T06:16:34;9.43;;;4.33;;
75890;SDS011;64571;47.512;19.054;2024-01-07T06:19:37;9.10;;;4.35;;
75890;SDS011;64571;47.512;19.054;2024-01-07T06:22:39;8.40;;;4.30;;
75890;SDS011;64571;47.512;19.054;2024-01-07T06:25:42;9.20;;;4.53;;
75890;SDS011;64571;47.512;19.054;2024-01-07T06:28:45;10.43;;;5.12;;
75890;SDS011;64571;47.512;19.054;2024-01-07T06:31:47;9.23;;;4.27;;
75890;SDS011;64571;47.512;19.054;2024-01-07T06:34:52;9.02;;;4.70;;
75890;SDS011;64571;47.512;19.054;2024-01-07T06:37:54;10.25;;;4.35;;
75890;SDS011;64571;47.512;19.054;2024-01-07T06:40:57;8.43;;;4.30;;
75890;SDS011;64571;47.512;19.054;2024-01-07T06:44:03;9.50;;;4.80;;
75890;SDS011;64571;47.512;19.054;2024-01-07T06:47:06;10.70;;;4.60;;
75890;SDS011;64571;47.512;19.054;2024-01-07T06:50:09;8.43;;;4.53;;
75890;SDS011;64571;47.512;19.054;2024-01-07T06:53:13;8.40;;;4.47;;
75890;SDS011;64571;47.512;19.054;2024-01-07T06:56:15;8.63;;;4.25;;
75890;SDS011;64571;47.512;19.054;2024-01-07T06:59:18;19.67;;;9.38;;
75890;SDS011;64571;47.512;19.054;2024-01-07T07:02:20;11.80;;;4.87;;
75890;SDS011;64571;47.512;19.054;2024-01-07T07:05:24;13.00;;;5.85;;
75890;SDS011;64571;47.512;19.054;2024-01-07T07:08:26;12.32;;;5.57;;
75890;SDS011;64571;47.512;19.054;2024-01-07T07:11:29;9.80;;;4.62;;
75890;SDS011;64571;47.512;19.054;2024-01-07T07:14:31;8.80;;;4.53;;
75890;SDS011;64571;47.512;19.054;2024-01-07T07:17:34;10.20;;;4.50;;
75890;SDS011;64571;47.512;19.054;2024-01-07T07:20:38;10.52;;;4.65;;
75890;SDS011;64571;47.512;19.054;2024-01-07T07:23:40;9.35;;;4.40;;
75890;SDS011;64571;47.512;19.054;2024-01-07T07:26:44;9.15;;;4.10;;
75890;SDS011;64571;47.512;19.054;2024-01-07T07:29:46;9.70;;;4.53;;
75890;SDS011;64571;47.512;19.054;2024-01-07T07:32:49;10.10;;;4.50;;
75890;SDS011;64571;47.512;19.054;2024-01-07T07:35:52;8.30;;;4.05;;
75890;SDS011;64571;47.512;19.054;2024-01-07T07:38:54;8.07;;;4.15;;
75890;SDS011;64571;47.512;19.054;2024-01-07T07:41:57;7.97;;;3.83;;
75890;SDS011;64571;47.512;19.054;2024-01-07T07:45:01;7.03;;;4.22;;
75890;SDS011;64571;47.512;19.054;2024-01-07T07:48:05;8.10;;;3.77;;
75890;SDS011;64571;47.512;19.054;2024-01-07T07:51:08;7.50;;;3.70;;
75890;SDS011;64571;47.512;19.054;2024-01-07T07:54:11;9.05;;;4.57;;
75890;SDS011;64571;47.512;19.054;2024-01-07T07:57:13;7.47;;;3.70;;
75890;SDS011;64571;47.512;19.054;2024-01-07T08:00:16;8.05;;;3.87;;
75890;SDS011;64571;47.512;19.054;2024-01-07T08:03:19;7.70;;;3.40;;
75890;SDS011;64571;47.512;19.054;2024-01-07T08:06:21;7.82;;;3.83;;
75890;SDS011;64571;47.512;19.054;2024-01-07T08:09:24;8.13;;;3.72;;
75890;SDS011;64571;47.512;19.054;2024-01-07T08:12:27;9.63;;;4.75;;
75890;SDS011;64571;47.512;19.054;2024-01-07T08:15:30;7.75;;;3.70;;
75890;SDS011;64571;47.512;19.054;2024-01-07T08:18:32;7.03;;;3.50;;
75890;SDS011;64571;47.512;19.054;2024-01-07T08:21:35;7.32;;;3.47;;
75890;SDS011;64571;47.512;19.054;2024-01-07T08:24:38;6.97;;;3.40;;
75890;SDS011;64571;47.512;19.054;2024-01-07T08:27:41;7.82;;;3.17;;
75890;SDS011;64571;47.512;19.054;2024-01-07T08:30:44;8.10;;;3.62;;
75890;SDS011;64571;47.512;19.054;2024-01-07T08:33:47;6.77;;;3.30;;
75890;SDS011;64571;47.512;19.054;2024-01-07T08:36:49;7.93;;;3.90;;
75890;SDS011;64571;47.512;19.054;2024-01-07T08:39:52;7.47;;;3.30;;
75890;SDS011;64571;47.512;19.054;2024-01-07T08:42:56;9.00;;;3.50;;
75890;SDS011;64571;47.512;19.054;2024-01-07T08:45:59;6.12;;;2.97;;
75890;SDS011;64571;47.512;19.054;2024-01-07T08:49:01;6.80;;;3.33;;
75890;SDS011;64571;47.512;19.054;2024-01-07T08:52:05;7.40;;;3.40;;
75890;SDS011;64571;47.512;19.054;2024-01-07T08:55:08;10.35;;;3.78;;
75890;SDS011;64571;47.512;19.054;2024-01-07T08:58:13;7.82;;;3.72;;
75890;SDS011;64571;47.512;19.054;2024-01-07T09:01:16;8.15;;;4.15;;
75890;SDS011;64571;47.512;19.054;2024-01-07T09:04:19;13.40;;;6.07;;
75890;SDS011;64571;47.512;19.054;2024-01-07T09:07:22;7.15;;;3.83;;
75890;SDS011;64571;47.512;19.054;2024-01-07T09:10:24;8.07;;;3.72;;
75890;SDS011;64571;47.512;19.054;2024-01-07T09:13:28;8.52;;;3.75;;
75890;SDS011;64571;47.512;19.054;2024-01-07T09:16:31;8.55;;;4.12;;
75890;SDS011;64571;47.512;19.054;2024-01-07T09:19:34;9.67;;;3.93;;
75890;SDS011;64571;47.512;19.054;2024-01-07T09:22:37;7.97;;;3.72;;
75890;SDS011;64571;47.512;19.054;2024-01-07T09:25:39;8.52;;;3.87;;
75890;SDS011;64571;47.512;19.054;2024-01-07T09:28:42;8.13;;;3.67;;
75890;SDS011;64571;47.512;19.054;2024-01-07T09:31:45;7.37;;;4.00;;
75890;SDS011;64571;47.512;19.054;2024-01-07T09:34:48;8.27;;;4.10;;
75890;SDS011;64571;47.512;19.054;2024-01-07T09:37:51;8.90;;;4.22;;
75890;SDS011;64571;47.512;19.054;2024-01-07T09:40:53;8.27;;;4.20;;
75890;SDS011;64571;47.512;19.054;2024-01-07T09:43:56;9.13;;;4.18;;
75890;SDS011;64571;47.512;19.054;2024-01-07T09:47:01;9.23;;;4.68;;
75890;SDS011;64571;47.512;19.054;2024-01-07T09:50:04;10.53;;;4.53;;
75890;SDS011;64571;47.512;19.054;2024-01-07T09:53:11;8.23;;;4.03;;
75890;SDS011;64571;47.512;19.054;2024-01-07T09:56:23;9.15;;;4.12;;
75890;SDS011;64571;47.512;19.054;2024-01-07T09:59:28;8.07;;;3.65;;
75890;SDS011;64571;47.512;19.054;2024-01-07T10:02:31;7.47;;;3.47;;
75890;SDS011;64571;47.512;19.054;2024-01-07T10:05:35;6.87;;;3.30;;
75890;SDS011;64571;47.512;19.054;2024-01-07T10:08:37;7.00;;;3.40;;
75890;SDS011;64571;47.512;19.054;2024-01-07T10:11:41;6.85;;;3.30;;
75890;SDS011;64571;47.512;19.054;2024-01-07T10:14:45;8.35;;;3.83;;
75890;SDS011;64571;47.512;19.054;2024-01-07T10:17:48;7.35;;;3.30;;
75890;SDS011;64571;47.512;19.054;2024-01-07T10:20:51;6.83;;;3.57;;
75890;SDS011;64571;47.512;19.054;2024-01-07T10:24:07;7.80;;;3.70;;
75890;SDS011;64571;47.512;19.054;2024-01-07T10:27:11;11.30;;;3.35;;
75890;SDS011;64571;47.512;19.054;2024-01-07T10:30:15;8.63;;;3.85;;
75890;SDS011;64571;47.512;19.054;2024-01-07T10:33:18;10.10;;;5.20;;
75890;SDS011;64571;47.512;19.054;2024-01-07T10:36:22;10.40;;;4.07;;
75890;SDS011;64571;47.512;19.054;2024-01-07T10:39:26;9.35;;;4.30;;
75890;SDS011;64571;47.512;19.054;2024-01-07T10:42:30;9.10;;;3.70;;
75890;SDS011;64571;47.512;19.054;2024-01-07T10:45:34;9.95;;;3.87;;
75890;SDS011;64571;47.512;19.054;2024-01-07T10:48:38;7.57;;;3.92;;
75890;SDS011;64571;47.512;19.054;2024-01-07T10:51:45;7.40;;;3.57;;
75890;SDS011;64571;47.512;19.054;2024-01-07T10:54:52;10.27;;;3.25;;
75890;SDS011;64571;47.512;19.054;2024-01-07T10:57:58;10.98;;;4.30;;
75890;SDS011;64571;47.512;19.054;2024-01-07T11:01:03;10.13;;;5.03;;
75890;SDS011;64571;47.512;19.054;2024-01-07T11:04:15;9.27;;;4.47;;
75890;SDS011;64571;47.512;19.054;2024-01-07T11:07:29;10.67;;;5.20;;
75890;SDS011;64571;47.512;19.054;2024-01-07T11:10:50;8.55;;;3.60;;
75890;SDS011;64571;47.512;19.054;2024-01-07T11:14:00;9.25;;;4.50;;
75890;SDS011;64571;47.512;19.054;2024-01-07T11:17:04;7.35;;;3.42;;
75890;SDS011;64571;47.512;19.054;2024-01-07T11:20:12;8.38;;;4.10;;
75890;SDS011;64571;47.512;19.054;2024-01-07T11:23:25;9.67;;;3.80;;
75890;SDS011;64571;47.512;19.054;2024-01-07T11:26:42;6.82;;;3.37;;
75890;SDS011;64571;47.512;19.054;2024-01-07T11:29:55;6.35;;;2.70;;
75890;SDS011;64571;47.512;19.054;2024-01-07T11:32:59;6.62;;;2.72;;
75890;SDS011;64571;47.512;19.054;2024-01-07T11:36:03;5.95;;;2.87;;
75890;SDS011;64571;47.512;19.054;2024-01-07T11:39:07;5.73;;;2.50;;
75890;SDS011;64571;47.512;19.054;2024-01-07T11:42:12;6.62;;;2.90;;
75890;SDS011;64571;47.512;19.054;2024-01-07T11:45:15;6.43;;;3.00;;
75890;SDS011;64571;47.512;19.054;2024-01-07T11:48:18;8.25;;;3.35;;
75890;SDS011;64571;47.512;19.054;2024-01-07T11:51:22;8.85;;;3.55;;
75890;SDS011;64571;47.512;19.054;2024-01-07T11:54:24;6.30;;;2.67;;
75890;SDS011;64571;47.512;19.054;2024-01-07T11:57:27;7.28;;;2.97;;
75890;SDS011;64571;47.512;19.054;2024-01-07T12:00:35;6.47;;;2.80;;
75890;SDS011;64571;47.512;19.054;2024-01-07T12:03:39;8.98;;;4.10;;
75890;SDS011;64571;47.512;19.054;2024-01-07T12:06:43;8.38;;;3.28;;
75890;SDS011;64571;47.512;19.054;2024-01-07T12:09:54;7.70;;;2.50;;
75890;SDS011;64571;47.512;19.054;2024-01-07T12:12:58;5.53;;;2.10;;
75890;SDS011;64571;47.512;19.054;2024-01-07T12:16:01;6.28;;;2.10;;
75890;SDS011;64571;47.512;19.054;2024-01-07T12:19:07;5.10;;;2.25;;
75890;SDS011;64571;47.512;19.054;2024-01-07T12:22:11;7.03;;;2.33;;
75890;SDS011;64571;47.512;19.054;2024-01-07T12:25:20;4.60;;;1.70;;
75890;SDS011;64571;47.512;19.054;2024-01-07T12:28:25;6.18;;;2.30;;
75890;SDS011;64571;47.512;19.054;2024-01-07T12:31:33;8.63;;;3.37;;
75890;SDS011;64571;47.512;19.054;2024-01-07T12:34:37;5.68;;;2.10;;
75890;SDS011;64571;47.512;19.054;2024-01-07T12:37:40;6.62;;;2.85;;
75890;SDS011;64571;47.512;19.054;2024-01-07T12:40:42;5.57;;;2.40;;
75890;SDS011;64571;47.512;19.054;2024-01-07T12:43:45;5.97;;;2.20;;
75890;SDS011;64571;47.512;19.054;2024-01-07T12:46:48;5.75;;;2.67;;
75890;SDS011;64571;47.512;19.054;2024-01-07T12:49:54;8.38;;;4.15;;
75890;SDS011;64571;47.512;19.054;2024-01-07T12:52:56;8.15;;;3.47;;
75890;SDS011;64571;47.512;19.054;2024-01-07T12:55:59;6.57;;;2.87;;
75890;SDS011;64571;47.512;19.054;2024-01-07T12:59:02;7.72;;;3.30;;
75890;SDS011;64571;47.512;19.054;2024-01-07T13:02:05;7.50;;;3.22;;
75890;SDS011;64571;47.512;19.054;2024-01-07T13:05:08;8.38;;;3.80;;
75890;SDS011;64571;47.512;19.054;2024-01-07T13:08:14;8.00;;;3.37;;
75890;SDS011;64571;47.512;19.054;2024-01-07T13:11:17;7.33;;;2.73;;
75890;SDS011;64571;47.512;19.054;2024-01-07T13:14:19;6.75;;;2.90;;
75890;SDS011;64571;47.512;19.054;2024-01-07T13:17:22;8.15;;;4.07;;
75890;SDS011;64571;47.512;19.054;2024-01-07T13:20:26;9.30;;;3.65;;
75890;SDS011;64571;47.512;19.054;2024-01-07T13:23:29;7.65;;;4.45;;
75890;SDS011;64571;47.512;19.054;2024-01-07T13:26:32;9.20;;;3.70;;
75890;SDS011;64571;47.512;19.054;2024-01-07T13:29:34;9.40;;;3.62;;
75890;SDS011;64571;47.512;19.054;2024-01-07T13:32:37;8.40;;;3.62;;
75890;SDS011;64571;47.512;19.054;2024-01-07T13:35:40;7.45;;;3.40;;
75890;SDS011;64571;47.512;19.054;2024-01-07T13:38:43;11.27;;;3.80;;
75890;SDS011;64571;47.512;19.054;2024-01-07T13:41:47;8.03;;;3.70;;
75890;SDS011;64571;47.512;19.054;2024-01-07T13:44:51;12.63;;;4.05;;
75890;SDS011;64571;47.512;19.054;2024-01-07T13:47:54;5.57;;;2.37;;
75890;SDS011;64571;47.512;19.054;2024-01-07T13:50:57;11.98;;;5.32;;
75890;SDS011;64571;47.512;19.054;2024-01-07T13:54:00;8.60;;;4.25;;
75890;SDS011;64571;47.512;19.054;2024-01-07T13:57:03;9.87;;;4.57;;
75890;SDS011;64571;47.512;19.054;2024-01-07T14:00:08;11.77;;;4.00;;
75890;SDS011;64571;47.512;19.054;2024-01-07T14:03:12;9.75;;;4.35;;
75890;SDS011;64571;47.512;19.054;2024-01-07T14:06:14;7.30;;;3.17;;
75890;SDS011;64571;47.512;19.054;2024-01-07T14:09:17;9.02;;;4.78;;
75890;SDS011;64571;47.512;19.054;2024-01-07T14:12:20;7.97;;;3.83;;
75890;SDS011;64571;47.512;19.054;2024-01-07T14:15:23;11.18;;;5.53;;
75890;SDS011;64571;47.512;19.054;2024-01-07T14:18:25;7.85;;;3.97;;
75890;SDS011;64571;47.512;19.054;2024-01-07T14:21:28;9.95;;;4.82;;
75890;SDS011;64571;47.512;19.054;2024-01-07T14:24:32;7.35;;;4.07;;
75890;SDS011;64571;47.512;19.054;2024-01-07T14:27:35;6.23;;;2.67;;
75890;SDS011;64571;47.512;19.054;2024-01-07T14:30:38;10.77;;;4.43;;
75890;SDS011;64571;47.512;19.054;2024-01-07T14:33:40;9.63;;;4.40;;
75890;SDS011;64571;47.512;19.054;2024-01-07T14:36:43;9.15;;;3.92;;
75890;SDS011;64571;47.512;19.054;2024-01-07T14:39:46;10.18;;;4.53;;
75890;SDS011;64571;47.512;19.054;2024-01-07T14:42:49;10.17;;;4.53;;
75890;SDS011;64571;47.512;19.054;2024-01-07T14:45:52;10.23;;;4.10;;
75890;SDS011;64571;47.512;19.054;2024-01-07T14:48:55;7.28;;;3.28;;
75890;SDS011;64571;47.512;19.054;2024-01-07T14:51:58;9.15;;;4.28;;
75890;SDS011;64571;47.512;19.054;2024-01-07T14:55:00;8.10;;;3.97;;
75890;SDS011;64571;47.512;19.054;2024-01-07T14:58:05;9.43;;;4.30;;
75890;SDS011;64571;47.512;19.054;2024-01-07T15:01:07;9.85;;;4.20;;
75890;SDS011;64571;47.512;19.054;2024-01-07T15:04:10;11.77;;;5.57;;
75890;SDS011;64571;47.512;19.054;2024-01-07T15:07:14;10.50;;;4.62;;
75890;SDS011;64571;47.512;19.054;2024-01-07T15:10:19;7.95;;;3.20;;
75890;SDS011;64571;47.512;19.054;2024-01-07T15:13:21;7.70;;;3.90;;
75890;SDS011;64571;47.512;19.054;2024-01-07T15:16:29;10.40;;;4.62;;
75890;SDS011;64571;47.512;19.054;2024-01-07T15:19:31;9.30;;;5.03;;
75890;SDS011;64571;47.512;19.054;2024-01-07T15:22:34;9.30;;;4.57;;
75890;SDS011;64571;47.512;19.054;2024-01-07T15:25:36;9.75;;;4.47;;
75890;SDS011;64571;47.512;19.054;2024-01-07T15:28:40;10.37;;;4.60;;
75890;SDS011;64571;47.512;19.054;2024-01-07T15:31:42;9.88;;;4.87;;
75890;SDS011;64571;47.512;19.054;2024-01-07T15:34:45;9.32;;;4.87;;
75890;SDS011;64571;47.512;19.054;2024-01-07T15:37:48;12.63;;;5.78;;
75890;SDS011;64571;47.512;19.054;2024-01-07T15:40:51;11.27;;;5.97;;
75890;SDS011;64571;47.512;19.054;2024-01-07T15:43:53;12.13;;;5.20;;
75890;SDS011;64571;47.512;19.054;2024-01-07T15:46:56;10.15;;;4.45;;
75890;SDS011;64571;47.512;19.054;2024-01-07T15:49:59;6.70;;;2.85;;
75890;SDS011;64571;47.512;19.054;2024-01-07T15:53:02;10.15;;;4.20;;
75890;SDS011;64571;47.512;19.054;2024-01-07T15:56:08;13.68;;;4.05;;
75890;SDS011;64571;47.512;19.054;2024-01-07T15:59:11;8.43;;;3.70;;
75890;SDS011;64571;47.512;19.054;2024-01-07T16:02:15;10.27;;;4.43;;
75890;SDS011;64571;47.512;19.054;2024-01-07T16:05:18;8.60;;;3.47;;
75890;SDS011;64571;47.512;19.054;2024-01-07T16:08:20;9.35;;;3.60;;
75890;SDS011;64571;47.512;19.054;2024-01-07T16:11:23;9.48;;;4.10;;
75890;SDS011;64571;47.512;19.054;2024-01-07T16:14:26;12.93;;;4.50;;
75890;SDS011;64571;47.512;19.054;2024-01-07T16:17:30;9.40;;;4.37;;
75890;SDS011;64571;47.512;19.054;2024-01-07T16:20:32;6.35;;;3.15;;
75890;SDS011;64571;47.512;19.054;2024-01-07T16:23:35;9.15;;;4.03;;
75890;SDS011;64571;47.512;19.054;2024-01-07T16:26:41;8.43;;;3.75;;
75890;SDS011;64571;47.512;19.054;2024-01-07T16:29:45;9.27;;;4.43;;
75890;SDS011;64571;47.512;19.054;2024-01-07T16:32:48;9.73;;;4.28;;
75890;SDS011;64571;47.512;19.054;2024-01-07T16:35:52;9.77;;;4.78;;
75890;SDS011;64571;47.512;19.054;2024-01-07T16:38:54;6.68;;;2.60;;
75890;SDS011;64571;47.512;19.054;2024-01-07T16:42:00;7.40;;;3.58;;
75890;SDS011;64571;47.512;19.054;2024-01-07T16:45:03;6.83;;;3.50;;
75890;SDS011;64571;47.512;19.054;2024-01-07T16:48:07;10.43;;;4.62;;
75890;SDS011;64571;47.512;19.054;2024-01-07T16:51:09;10.98;;;4.30;;
75890;SDS011;64571;47.512;19.054;2024-01-07T16:54:15;10.43;;;2.67;;
75890;SDS011;64571;47.512;19.054;2024-01-07T16:57:17;7.47;;;3.10;;
75890;SDS011;64571;47.512;19.054;2024-01-07T17:00:20;9.20;;;4.40;;
75890;SDS011;64571;47.512;19.054;2024-01-07T17:03:23;8.20;;;3.92;;
75890;SDS011;64571;47.512;19.054;2024-01-07T17:06:26;9.80;;;3.28;;
75890;SDS011;64571;47.512;19.054;2024-01-07T17:09:28;10.13;;;3.33;;
75890;SDS011;64571;47.512;19.054;2024-01-07T17:12:31;12.37;;;3.92;;
75890;SDS011;64571;47.512;19.054;2024-01-07T17:15:34;10.00;;;4.43;;
75890;SDS011;64571;47.512;19.054;2024-01-07T17:18:37;8.05;;;3.33;;
75890;SDS011;64571;47.512;19.054;2024-01-07T17:21:40;10.73;;;4.68;;
75890;SDS011;64571;47.512;19.054;2024-01-07T17:24:44;7.70;;;2.85;;
75890;SDS011;64571;47.512;19.054;2024-01-07T17:27:46;10.43;;;4.25;;
75890;SDS011;64571;47.512;19.054;2024-01-07T17:30:52;11.90;;;5.20;;
75890;SDS011;64571;47.512;19.054;2024-01-07T17:33:56;11.10;;;4.72;;
75890;SDS011;64571;47.512;19.054;2024-01-07T17:36:59;13.40;;;5.40;;
75890;SDS011;64571;47.512;19.054;2024-01-07T17:40:03;11.15;;;4.75;;
75890;SDS011;64571;47.512;19.054;2024-01-07T17:43:06;9.52;;;4.03;;
75890;SDS011;64571;47.512;19.054;2024-01-07T17:46:09;12.20;;;5.00;;
75890;SDS011;64571;47.512;19.054;2024-01-07T17:49:13;12.07;;;4.18;;
75890;SDS011;64571;47.512;19.054;2024-01-07T17:52:16;12.07;;;5.32;;
75890;SDS011;64571;47.512;19.054;2024-01-07T17:55:18;11.27;;;4.18;;
75890;SDS011;64571;47.512;19.054;2024-01-07T17:58:21;11.00;;;5.45;;